createdAt,value
2023-02-12T00:02:10.785Z,6.46
2023-02-12T00:04:37.006Z,6.45
2023-02-12T00:07:03.239Z,6.45
2023-02-12T00:09:29.439Z,6.47
2023-02-12T00:11:55.643Z,6.45
2023-02-12T00:14:21.846Z,6.45
2023-02-12T00:16:48.064Z,6.44
2023-02-12T00:19:14.280Z,6.41
2023-02-12T00:21:40.508Z,6.43
2023-02-12T00:24:06.756Z,6.42
2023-02-12T00:26:32.968Z,6.45
2023-02-12T00:28:59.168Z,6.46
2023-02-12T00:31:27.003Z,6.46
2023-02-12T00:33:53.389Z,6.45
2023-02-12T00:36:20.430Z,6.46
2023-02-12T00:38:46.680Z,6.44
2023-02-12T00:41:12.910Z,6.45
2023-02-12T00:43:39.145Z,6.43
2023-02-12T00:46:05.448Z,6.43
2023-02-12T00:48:31.678Z,6.39
2023-02-12T00:50:57.888Z,6.36
2023-02-12T00:53:24.105Z,6.39
2023-02-12T00:55:50.335Z,6.39
2023-02-12T00:58:18.789Z,6.37
2023-02-12T01:00:45.244Z,6.35
2023-02-12T01:03:11.454Z,6.34
2023-02-12T01:05:37.672Z,6.34
2023-02-12T01:08:03.915Z,6.36
2023-02-12T01:10:30.129Z,6.40
2023-02-12T01:12:56.344Z,6.38
2023-02-12T01:15:22.671Z,6.37
2023-02-12T01:17:51.032Z,6.36
2023-02-12T01:20:17.354Z,6.35
2023-02-12T01:22:43.616Z,6.38
2023-02-12T01:25:10.066Z,6.35
2023-02-12T01:27:36.351Z,6.38
2023-02-12T01:30:02.675Z,6.40
2023-02-12T01:32:28.897Z,6.43
2023-02-12T01:34:55.101Z,6.39
2023-02-12T01:37:21.305Z,6.37
2023-02-12T01:39:47.502Z,6.38
2023-02-12T01:42:13.935Z,6.36
2023-02-12T01:44:43.978Z,6.37
2023-02-12T01:47:17.007Z,6.36
2023-02-12T01:49:43.955Z,6.36
2023-02-12T01:52:13.002Z,6.37
2023-02-12T01:54:39.197Z,6.36
2023-02-12T01:57:05.608Z,6.39
2023-02-12T01:59:31.819Z,6.39
2023-02-12T02:01:58.084Z,6.45
2023-02-12T02:04:25.837Z,6.41
2023-02-12T02:06:58.897Z,6.44
2023-02-12T02:09:25.145Z,6.43
2023-02-12T02:11:51.355Z,6.43
2023-02-12T02:14:17.558Z,6.40
2023-02-12T02:16:45.100Z,6.45
2023-02-12T02:19:23.203Z,6.42
2023-02-12T02:22:02.444Z,6.47
2023-02-12T02:24:37.158Z,6.47
2023-02-12T02:27:06.347Z,6.49
2023-02-12T02:29:41.823Z,6.47
2023-02-12T02:32:08.465Z,6.51
2023-02-12T02:34:39.082Z,6.47
2023-02-12T02:37:24.049Z,6.49
2023-02-12T02:39:51.849Z,6.48
2023-02-12T02:42:35.365Z,6.50
2023-02-12T02:45:08.054Z,6.45
2023-02-12T02:47:36.555Z,6.45
2023-02-12T02:50:04.209Z,6.44
2023-02-12T02:52:33.903Z,6.51
2023-02-12T02:55:01.378Z,6.46
2023-02-12T02:57:39.824Z,6.50
2023-02-12T03:00:13.655Z,6.50
2023-02-12T03:02:40.475Z,6.46
2023-02-12T03:05:10.582Z,6.47
2023-02-12T03:07:37.760Z,6.47
2023-02-12T03:10:05.368Z,6.48
2023-02-12T03:12:33.544Z,6.44
2023-02-12T03:15:01.793Z,6.45
2023-02-12T03:17:29.542Z,6.44
2023-02-12T03:20:06.078Z,6.40
2023-02-12T03:22:33.687Z,6.42
2023-02-12T03:25:06.266Z,6.43
2023-02-12T03:27:32.852Z,6.46
2023-02-12T03:29:59.214Z,6.46
2023-02-12T03:32:25.372Z,6.46
2023-02-12T03:34:51.542Z,6.45
2023-02-12T03:37:19.293Z,6.46
2023-02-12T03:39:49.631Z,6.45
2023-02-12T03:42:22.172Z,6.46
2023-02-12T03:44:49.782Z,6.45
2023-02-12T03:47:35.628Z,6.42
2023-02-12T03:50:01.786Z,6.38
2023-02-12T03:52:28.185Z,6.43
2023-02-12T03:54:54.402Z,6.43
2023-02-12T03:57:21.411Z,6.39
2023-02-12T03:59:47.618Z,6.38
2023-02-12T04:02:14.045Z,6.39
2023-02-12T04:04:40.372Z,6.42
2023-02-12T04:07:06.614Z,6.42
2023-02-12T04:09:32.828Z,6.37
2023-02-12T04:12:17.816Z,6.41
2023-02-12T04:14:54.775Z,6.39
2023-02-12T04:17:30.206Z,6.37
2023-02-12T04:20:08.779Z,6.36
2023-02-12T04:22:43.101Z,6.32
2023-02-12T04:25:17.118Z,6.33
2023-02-12T04:27:48.662Z,6.34
2023-02-12T04:30:19.851Z,6.32
2023-02-12T04:32:59.760Z,6.29
2023-02-12T04:35:35.720Z,6.31
2023-02-12T04:38:04.029Z,6.28
2023-02-12T04:40:30.238Z,6.28
2023-02-12T04:42:56.431Z,6.30
2023-02-12T04:45:23.859Z,6.31
2023-02-12T04:47:50.059Z,6.28
2023-02-12T04:50:16.322Z,6.28
2023-02-12T04:52:42.510Z,6.30
2023-02-12T04:55:08.722Z,6.27
2023-02-12T04:57:34.922Z,6.30
2023-02-12T05:00:01.146Z,6.32
2023-02-12T05:02:27.347Z,6.30
2023-02-12T05:04:53.573Z,6.32
2023-02-12T05:07:19.775Z,6.30
2023-02-12T05:09:46.003Z,6.31
2023-02-12T05:12:12.219Z,6.29
2023-02-12T05:14:38.447Z,6.30
2023-02-12T05:17:04.643Z,6.30
2023-02-12T05:19:30.847Z,6.30
2023-02-12T05:21:57.058Z,6.29
2023-02-12T05:24:23.273Z,6.26
2023-02-12T05:26:49.866Z,6.26
2023-02-12T05:29:16.068Z,6.28
2023-02-12T05:31:42.394Z,6.26
2023-02-12T05:34:09.728Z,6.26
2023-02-12T05:36:35.951Z,6.26
2023-02-12T05:39:02.147Z,6.25
2023-02-12T05:41:28.441Z,6.25
2023-02-12T05:43:54.814Z,6.26
2023-02-12T05:46:21.598Z,6.25
2023-02-12T05:48:48.269Z,6.23
2023-02-12T05:51:15.365Z,6.22
2023-02-12T05:53:41.744Z,6.23
2023-02-12T05:56:07.906Z,6.23
2023-02-12T05:58:34.124Z,6.26
2023-02-12T06:01:00.381Z,6.23
2023-02-12T06:03:26.622Z,6.21
2023-02-12T06:08:33.873Z,6.22
2023-02-12T06:11:00.899Z,6.22
2023-02-12T06:13:27.114Z,6.21
2023-02-12T06:18:35.354Z,6.25
2023-02-12T06:21:03.186Z,6.27
2023-02-12T06:23:29.398Z,6.26
2023-02-12T06:25:56.162Z,6.25
2023-02-12T06:28:22.709Z,6.23
2023-02-12T06:30:48.976Z,6.22
2023-02-12T06:33:15.236Z,6.25
2023-02-12T06:35:41.484Z,6.27
2023-02-12T06:38:07.693Z,6.25
2023-02-12T06:40:33.918Z,6.24
2023-02-12T06:43:00.418Z,6.27
2023-02-12T06:45:26.829Z,6.27
2023-02-12T06:47:53.053Z,6.27
2023-02-12T06:50:19.280Z,6.29
2023-02-12T06:52:48.228Z,6.28
2023-02-12T06:55:14.441Z,6.31
2023-02-12T06:57:40.665Z,6.32
2023-02-12T07:00:07.178Z,6.31
2023-02-12T07:02:33.711Z,6.31
2023-02-12T07:04:59.991Z,6.30
2023-02-12T07:07:27.670Z,6.33
2023-02-12T07:09:53.875Z,6.31
2023-02-12T07:12:20.080Z,6.35
2023-02-12T07:14:46.374Z,6.36
2023-02-12T07:17:12.605Z,6.42
2023-02-12T07:19:38.820Z,6.42
2023-02-12T07:22:05.046Z,6.45
2023-02-12T07:24:31.264Z,6.47
2023-02-12T07:26:57.494Z,6.49
2023-02-12T07:29:23.722Z,6.51
2023-02-12T07:31:49.995Z,6.53
2023-02-12T07:34:16.219Z,6.53
2023-02-12T07:36:42.441Z,6.53
2023-02-12T07:39:10.043Z,6.52
2023-02-12T07:41:36.306Z,6.58
2023-02-12T07:44:03.397Z,6.60
2023-02-12T07:46:30.426Z,6.62
2023-02-12T07:48:57.310Z,6.64
2023-02-12T07:51:23.535Z,6.64
2023-02-12T07:53:49.873Z,6.69
2023-02-12T07:56:19.942Z,6.71
2023-02-12T07:58:46.640Z,6.72
2023-02-12T08:01:13.684Z,6.75
2023-02-12T08:03:39.883Z,6.76
2023-02-12T08:06:12.971Z,6.77
2023-02-12T08:08:39.234Z,6.79
2023-02-12T08:11:06.325Z,6.77
2023-02-12T08:13:32.553Z,6.80
2023-02-12T08:16:02.461Z,6.76
2023-02-12T08:18:28.904Z,6.79
2023-02-12T08:20:55.128Z,6.75
2023-02-12T08:23:21.348Z,6.75
2023-02-12T08:25:52.876Z,6.78
2023-02-12T08:28:19.177Z,6.78
2023-02-12T08:30:45.487Z,6.80
2023-02-12T08:33:11.836Z,6.84
2023-02-12T08:35:38.110Z,6.88
2023-02-12T08:38:04.332Z,6.87
2023-02-12T08:40:30.568Z,6.85
2023-02-12T08:42:56.832Z,6.94
2023-02-12T08:45:23.062Z,6.90
2023-02-12T08:47:49.283Z,6.99
2023-02-12T08:50:15.522Z,6.95
2023-02-12T08:52:43.099Z,6.96
2023-02-12T08:55:10.329Z,7.05
2023-02-12T08:57:36.550Z,7.14
2023-02-12T09:00:03.022Z,7.10
2023-02-12T09:02:29.281Z,7.09
2023-02-12T09:04:55.588Z,7.05
2023-02-12T09:07:21.815Z,7.08
2023-02-12T09:09:48.022Z,7.09
2023-02-12T09:12:14.241Z,7.15
2023-02-12T09:14:40.475Z,7.16
2023-02-12T09:17:06.767Z,7.20
2023-02-12T09:19:33.041Z,7.25
2023-02-12T09:21:59.259Z,7.33
2023-02-12T09:27:05.841Z,7.52
2023-02-12T09:29:33.765Z,7.61
2023-02-12T09:32:00.133Z,7.67
2023-02-12T09:34:26.388Z,7.61
2023-02-12T09:36:53.137Z,7.68
2023-02-12T09:39:19.471Z,7.67
2023-02-12T09:41:45.682Z,7.64
2023-02-12T09:44:33.402Z,7.59
2023-02-12T09:47:01.158Z,7.66
2023-02-12T09:49:43.761Z,7.80
2023-02-12T09:52:12.900Z,7.81
2023-02-12T09:54:39.166Z,7.83
2023-02-12T09:57:06.690Z,7.91
2023-02-12T09:59:38.476Z,7.92
2023-02-12T10:02:06.894Z,7.91
2023-02-12T10:04:33.187Z,7.97
2023-02-12T10:07:05.460Z,7.99
2023-02-12T10:09:37.710Z,8.00
2023-02-12T10:12:16.703Z,8.09
2023-02-12T10:14:56.097Z,8.16
2023-02-12T10:17:22.269Z,8.27
2023-02-12T10:20:06.536Z,8.30
2023-02-12T10:22:55.887Z,8.36
2023-02-12T10:25:24.401Z,8.38
2023-02-12T10:27:51.410Z,8.50
2023-02-12T10:30:31.611Z,8.53
2023-02-12T10:33:04.545Z,8.68
2023-02-12T10:35:30.763Z,8.73
2023-02-12T10:38:02.960Z,8.81
2023-02-12T10:40:30.291Z,8.89
2023-02-12T10:42:56.845Z,8.95
2023-02-12T10:45:33.581Z,8.96
2023-02-12T10:48:08.979Z,8.92
2023-02-12T10:50:44.537Z,8.96
2023-02-12T10:53:16.704Z,9.06
2023-02-12T10:55:42.907Z,9.16
2023-02-12T10:58:24.501Z,8.99
2023-02-12T11:01:00.072Z,9.14
2023-02-12T11:03:30.369Z,9.18
2023-02-12T11:05:56.862Z,9.32
2023-02-12T11:08:28.049Z,9.30
2023-02-12T11:10:54.272Z,9.42
2023-02-12T11:13:22.164Z,9.46
2023-02-12T11:15:48.422Z,9.41
2023-02-12T11:18:30.785Z,9.47
2023-02-12T11:21:00.839Z,9.43
2023-02-12T11:23:34.213Z,9.45
2023-02-12T11:26:07.724Z,9.54
2023-02-12T11:28:35.090Z,9.72
2023-02-12T11:31:02.189Z,9.69
2023-02-12T11:33:29.476Z,9.83
2023-02-12T11:35:57.077Z,9.79
2023-02-12T11:38:27.376Z,9.73
2023-02-12T11:40:54.844Z,9.83
2023-02-12T11:43:21.044Z,9.90
2023-02-12T11:45:50.955Z,9.94
2023-02-12T11:48:30.654Z,9.93
2023-02-12T11:50:57.728Z,9.90
2023-02-12T11:53:33.430Z,10.06
2023-02-12T11:56:01.196Z,10.15
2023-02-12T11:58:27.655Z,10.04
2023-02-12T12:01:04.748Z,10.00
2023-02-12T12:03:49.468Z,10.13
2023-02-12T12:06:23.135Z,10.15
2023-02-12T12:09:21.872Z,10.20
2023-02-12T12:11:58.864Z,10.33
2023-02-12T12:14:27.362Z,10.20
2023-02-12T12:16:55.045Z,10.18
2023-02-12T12:19:29.163Z,10.31
2023-02-12T12:22:10.773Z,10.28
2023-02-12T12:24:44.746Z,10.22
2023-02-12T12:27:12.866Z,10.29
2023-02-12T12:29:44.841Z,10.36
2023-02-12T12:32:11.445Z,10.42
2023-02-12T12:34:37.638Z,10.41
2023-02-12T12:37:15.348Z,10.32
2023-02-12T12:39:41.497Z,10.48
2023-02-12T12:42:07.665Z,10.51
2023-02-12T12:44:47.791Z,10.50
2023-02-12T12:47:32.796Z,10.53
2023-02-12T12:50:14.517Z,10.57
2023-02-12T12:52:44.500Z,10.59
2023-02-12T12:55:16.732Z,10.57
2023-02-12T12:57:47.977Z,10.49
2023-02-12T13:00:25.680Z,10.49
2023-02-12T13:03:10.739Z,10.47
2023-02-12T13:05:47.597Z,10.57
2023-02-12T13:08:23.482Z,10.68
2023-02-12T13:10:51.202Z,10.52
2023-02-12T13:13:33.456Z,10.51
2023-02-12T13:16:11.979Z,10.48
2023-02-12T13:18:40.922Z,10.46
2023-02-12T13:21:10.146Z,10.50
2023-02-12T13:23:36.342Z,10.45
2023-02-12T13:26:02.516Z,10.45
2023-02-12T13:28:35.836Z,10.53
2023-02-12T13:31:05.083Z,10.55
2023-02-12T13:33:55.959Z,10.44
2023-02-12T13:36:22.156Z,10.46
2023-02-12T13:38:53.023Z,10.46
2023-02-12T13:41:19.220Z,10.41
2023-02-12T13:44:05.718Z,10.43
2023-02-12T13:46:45.593Z,10.38
2023-02-12T13:49:35.216Z,10.21
2023-02-12T13:52:12.056Z,10.14
2023-02-12T13:54:47.461Z,10.20
2023-02-12T13:57:14.882Z,10.23
2023-02-12T13:59:41.879Z,10.27
2023-02-12T14:02:46.716Z,10.30
2023-02-12T14:05:17.045Z,10.27
2023-02-12T14:07:44.182Z,10.06
2023-02-12T14:10:42.873Z,10.01
2023-02-12T14:13:16.137Z,10.03
2023-02-12T14:15:43.238Z,10.08
2023-02-12T14:18:22.963Z,10.07
2023-02-12T14:20:54.111Z,9.96
2023-02-12T14:23:21.092Z,9.93
2023-02-12T14:25:56.438Z,9.94
2023-02-12T14:28:27.328Z,9.94
2023-02-12T14:31:23.310Z,9.89
2023-02-12T14:33:50.555Z,9.82
2023-02-12T14:36:29.250Z,9.78
2023-02-12T14:38:59.710Z,9.76
2023-02-12T14:41:28.916Z,9.75
2023-02-12T14:44:13.758Z,9.68
2023-02-12T14:46:55.724Z,9.66
2023-02-12T14:49:40.521Z,9.68
2023-02-12T14:52:29.761Z,9.67
2023-02-12T14:54:59.455Z,9.68
2023-02-12T14:57:29.456Z,9.67
2023-02-12T14:59:56.464Z,9.58
2023-02-12T15:02:24.156Z,9.54
2023-02-12T15:04:50.624Z,9.46
2023-02-12T15:07:20.070Z,9.32
2023-02-12T15:09:47.350Z,9.28
2023-02-12T15:12:32.691Z,9.27
2023-02-12T15:15:04.547Z,9.26
2023-02-12T15:17:32.423Z,9.27
2023-02-12T15:20:02.862Z,9.17
2023-02-12T15:22:32.117Z,9.19
2023-02-12T15:25:16.833Z,9.14
2023-02-12T15:27:43.990Z,9.15
2023-02-12T15:30:25.566Z,9.11
2023-02-12T15:32:52.702Z,9.09
2023-02-12T15:35:20.287Z,9.08
2023-02-12T15:37:46.492Z,9.04
2023-02-12T15:40:14.000Z,9.02
2023-02-12T15:42:40.486Z,8.96
2023-02-12T15:45:15.927Z,8.94
2023-02-12T15:47:42.494Z,8.94
2023-02-12T15:50:12.630Z,8.91
2023-02-12T15:52:39.411Z,8.85
2023-02-12T15:55:05.816Z,8.81
2023-02-12T15:57:32.132Z,8.78
2023-02-12T16:00:09.189Z,8.74
2023-02-12T16:02:35.491Z,8.71
2023-02-12T16:05:02.261Z,8.68
2023-02-12T16:07:29.385Z,8.64
2023-02-12T16:09:55.601Z,8.62
2023-02-12T16:12:22.654Z,8.57
2023-02-12T16:14:49.748Z,8.53
2023-02-12T16:17:20.316Z,8.51
2023-02-12T16:20:01.558Z,8.46
2023-02-12T16:22:32.190Z,8.42
2023-02-12T16:24:58.398Z,8.35
2023-02-12T16:27:28.602Z,8.33
2023-02-12T16:29:55.766Z,8.31
2023-02-12T16:32:29.163Z,8.27
2023-02-12T16:34:59.359Z,8.27
2023-02-12T16:37:34.836Z,8.24
2023-02-12T16:40:13.238Z,8.24
2023-02-12T16:42:48.444Z,8.22
2023-02-12T16:45:26.832Z,8.24
2023-02-12T16:48:00.284Z,8.24
2023-02-12T16:50:27.459Z,8.22
2023-02-12T16:52:59.191Z,8.20
2023-02-12T16:55:25.390Z,8.19
2023-02-12T16:57:51.615Z,8.18
2023-02-12T17:00:17.943Z,8.19
2023-02-12T17:02:44.165Z,8.19
2023-02-12T17:05:10.373Z,8.19
2023-02-12T17:07:36.627Z,8.16
2023-02-12T17:10:03.000Z,8.15
2023-02-12T17:12:29.207Z,8.17
2023-02-12T17:14:55.415Z,8.15
2023-02-12T17:17:21.637Z,8.14
2023-02-12T17:19:47.851Z,8.14
2023-02-12T17:22:18.462Z,8.11
2023-02-12T17:24:44.666Z,8.07
2023-02-12T17:27:10.877Z,8.02
2023-02-12T17:29:37.078Z,8.01
2023-02-12T17:32:03.344Z,7.95
2023-02-12T17:34:32.089Z,7.95
2023-02-12T17:37:06.013Z,7.92
2023-02-12T17:39:32.220Z,7.90
2023-02-12T17:41:58.549Z,7.87
2023-02-12T17:44:24.773Z,7.86
2023-02-12T17:46:51.021Z,7.81
2023-02-12T17:49:17.251Z,7.79
2023-02-12T17:51:43.457Z,7.73
2023-02-12T17:54:09.714Z,7.73
2023-02-12T17:56:35.927Z,7.69
2023-02-12T17:59:02.148Z,7.68
2023-02-12T18:01:28.526Z,7.66
2023-02-12T18:03:57.063Z,7.61
2023-02-12T18:06:27.521Z,7.66
2023-02-12T18:08:53.754Z,7.65
2023-02-12T18:11:19.957Z,7.63
2023-02-12T18:13:46.335Z,7.62
2023-02-12T18:16:12.545Z,7.61
2023-02-12T18:18:38.769Z,7.60
2023-02-12T18:21:12.146Z,7.60
2023-02-12T18:23:40.867Z,7.60
2023-02-12T18:26:14.299Z,7.59
2023-02-12T18:28:40.551Z,7.57
2023-02-12T18:31:07.316Z,7.55
2023-02-12T18:33:33.663Z,7.50
2023-02-12T18:36:09.858Z,7.47
2023-02-12T18:38:36.302Z,7.42
2023-02-12T18:41:09.216Z,7.46
2023-02-12T18:43:35.464Z,7.45
2023-02-12T18:46:12.668Z,7.42
2023-02-12T18:48:38.896Z,7.43
2023-02-12T18:51:05.547Z,7.39
2023-02-12T18:53:31.742Z,7.39
2023-02-12T18:55:57.946Z,7.38
2023-02-12T18:58:24.181Z,7.37
2023-02-12T19:01:03.475Z,7.36
2023-02-12T19:03:29.730Z,7.39
2023-02-12T19:06:01.841Z,7.36
2023-02-12T19:08:28.046Z,7.32
2023-02-12T19:10:56.229Z,7.36
2023-02-12T19:13:22.697Z,7.31
2023-02-12T19:15:48.925Z,7.30
2023-02-12T19:18:15.152Z,7.29
2023-02-12T19:20:41.376Z,7.29
2023-02-12T19:23:07.629Z,7.29
2023-02-12T19:25:36.960Z,7.26
2023-02-12T19:28:03.219Z,7.28
2023-02-12T19:30:31.926Z,7.27
2023-02-12T19:32:58.161Z,7.34
2023-02-12T19:35:24.437Z,7.28
2023-02-12T19:37:53.042Z,7.26
2023-02-12T19:40:19.425Z,7.27
2023-02-12T19:42:45.761Z,7.26
2023-02-12T19:45:12.133Z,7.24
2023-02-12T19:47:38.370Z,7.25
2023-02-12T19:50:04.752Z,7.20
2023-02-12T19:52:30.952Z,7.22
2023-02-12T19:54:57.171Z,7.17
2023-02-12T19:57:23.398Z,7.16
2023-02-12T19:59:51.914Z,7.16
2023-02-12T20:02:18.159Z,7.16
2023-02-12T20:04:44.392Z,7.16
2023-02-12T20:07:10.629Z,7.14
2023-02-12T20:09:36.837Z,7.15
2023-02-12T20:12:03.142Z,7.14
2023-02-12T20:14:29.364Z,7.12
2023-02-12T20:16:55.767Z,7.08
2023-02-12T20:19:23.003Z,7.04
2023-02-12T20:21:50.469Z,7.06
2023-02-12T20:24:16.713Z,7.04
2023-02-12T20:26:42.930Z,7.02
2023-02-12T20:29:09.151Z,7.02
2023-02-12T20:31:45.350Z,7.00
2023-02-12T20:34:12.579Z,6.97
2023-02-12T20:36:39.317Z,6.99
2023-02-12T20:39:08.085Z,6.95
2023-02-12T20:41:34.362Z,6.96
2023-02-12T20:44:00.579Z,6.96
2023-02-12T20:46:26.803Z,6.96
2023-02-12T20:48:53.005Z,6.96
2023-02-12T20:51:21.748Z,6.93
2023-02-12T20:53:50.739Z,6.92
2023-02-12T20:56:17.959Z,6.91
2023-02-12T20:58:44.297Z,6.90
2023-02-12T21:01:15.878Z,6.91
2023-02-12T21:03:42.190Z,6.90
2023-02-12T21:06:08.444Z,6.90
2023-02-12T21:08:38.059Z,6.91
2023-02-12T21:11:08.278Z,6.88
2023-02-12T21:13:34.486Z,6.88
2023-02-12T21:16:07.989Z,6.88
2023-02-12T21:18:34.256Z,6.87
2023-02-12T21:21:01.344Z,6.88
2023-02-12T21:23:27.558Z,6.86
2023-02-12T21:26:07.375Z,6.83
2023-02-12T21:28:48.670Z,6.84
2023-02-12T21:31:15.925Z,6.79
2023-02-12T21:33:52.449Z,6.79
2023-02-12T21:39:25.555Z,6.76
2023-02-12T21:41:58.965Z,6.76
2023-02-12T21:44:25.881Z,6.75
2023-02-12T21:46:52.383Z,6.75
2023-02-12T21:49:19.118Z,6.76
2023-02-12T21:51:45.395Z,6.72
2023-02-12T21:54:19.101Z,6.72
2023-02-12T21:56:48.818Z,6.71
2023-02-12T22:00:02.879Z,6.72
2023-02-12T22:02:29.172Z,6.70
2023-02-12T22:04:55.377Z,6.69
2023-02-12T22:07:21.624Z,6.72
2023-02-12T22:09:47.844Z,6.78
2023-02-12T22:12:14.106Z,6.77
2023-02-12T22:14:40.322Z,6.75
2023-02-12T22:17:06.869Z,6.76
2023-02-12T22:19:33.116Z,6.77
2023-02-12T22:21:59.334Z,6.75
2023-02-12T22:24:25.604Z,6.74
2023-02-12T22:26:51.842Z,6.75
2023-02-12T22:29:18.083Z,6.70
2023-02-12T22:31:44.720Z,6.72
2023-02-12T22:34:11.973Z,6.72
2023-02-12T22:36:38.497Z,6.74
2023-02-12T22:39:04.903Z,6.75
2023-02-12T22:41:31.300Z,6.77
2023-02-12T22:43:58.357Z,6.73
2023-02-12T22:46:24.583Z,6.71
2023-02-12T22:48:50.810Z,6.67
2023-02-12T22:51:21.019Z,6.68
2023-02-12T22:53:47.337Z,6.69
2023-02-12T22:56:13.563Z,6.68
2023-02-12T22:58:39.784Z,6.66
2023-02-12T23:01:06.733Z,6.64
2023-02-12T23:03:33.139Z,6.61
2023-02-12T23:06:07.529Z,6.62
2023-02-12T23:08:34.068Z,6.68
2023-02-12T23:11:00.276Z,6.65
2023-02-12T23:13:29.813Z,6.65
2023-02-12T23:15:56.603Z,6.65
2023-02-12T23:18:22.849Z,6.64
2023-02-12T23:20:49.278Z,6.60
2023-02-12T23:23:15.607Z,6.61
2023-02-12T23:25:41.891Z,6.57
2023-02-12T23:28:08.268Z,6.58
2023-02-12T23:30:34.558Z,6.57
2023-02-12T23:33:00.806Z,6.60
2023-02-12T23:35:27.060Z,6.60
2023-02-12T23:37:53.295Z,6.57
2023-02-12T23:40:19.553Z,6.55
2023-02-12T23:42:45.775Z,6.57
2023-02-12T23:45:12.041Z,6.56
2023-02-12T23:47:38.286Z,6.59
2023-02-12T23:50:05.031Z,6.58
2023-02-12T23:52:31.256Z,6.55
2023-02-12T23:54:57.464Z,6.54
2023-02-12T23:57:23.698Z,6.52
2023-02-12T23:59:49.898Z,6.49
